Time;durP1;ratioP1;P1;durP2;ratioP2;P2;SDS_P1;SDS_P2;PMS_P1;PMS_P2;Temp;Humidity;BMP_temperature;BMP_pressure;BME280_temperature;BME280_humidity;BME280_pressure;Samples;Min_cycle;Max_cycle;Signal;HPM_P1;HPM_P2
2022/07/25 06:41:14;;;;;;;;;2.00;2.00;;;;;23.35;51.17;101049.78;2354964;29;45511;-86
2022/07/25 06:42:24;;;;;;;;;1.75;1.75;;;;;23.33;50.88;101048.22;2357528;29;46398;-86
2022/07/25 06:43:35;;;;;;;;;3.00;3.00;;;;;23.33;50.74;101056.25;2357272;29;45173;-87
2022/07/25 06:44:45;;;;;;;;;0.50;0.50;;;;;23.31;51.48;101056.38;2350305;29;45932;-88
2022/07/25 06:45:56;;;;;;;;;3.75;3.00;;;;;23.31;50.67;101052.84;2356683;29;44934;-86
2022/07/25 06:47:11;;;;;;;;;3.00;2.25;;;;;23.31;51.13;101056.38;2351472;29;47054;-87
2022/07/25 06:48:23;;;;;;;;;3.00;3.00;;;;;23.32;50.78;101052.72;2355588;29;45453;-87
2022/07/25 06:49:33;;;;;;;;;3.50;2.75;;;;;23.34;51.30;101052.59;2356409;29;47227;-87
2022/07/25 06:50:44;;;;;;;;;2.00;2.00;;;;;23.34;50.86;101053.44;2357097;29;44711;-87
2022/07/25 06:51:54;;;;;;;;;2.00;2.00;;;;;23.33;51.36;101057.13;2356422;29;47039;-87
2022/07/25 06:53:04;;;;;;;;;7.00;3.50;;;;;23.32;51.24;101057.22;2357370;29;45321;-87
2022/07/25 06:54:17;;;;;;;;;2.75;2.25;;;;;23.31;51.20;101050.19;2355894;29;45393;-87
2022/07/25 06:55:27;;;;;;;;;2.00;2.00;;;;;23.32;51.61;101055.41;2350225;29;45258;-87
2022/07/25 06:56:38;;;;;;;;;1.00;1.00;;;;;23.32;51.78;101058.09;2354592;29;46544;-87
2022/07/25 06:57:48;;;;;;;;;3.00;2.00;;;;;23.32;51.81;101055.41;2352940;29;45205;-87
2022/07/25 06:58:59;;;;;;;;;3.50;1.00;;;;;23.27;51.59;101061.16;2359526;29;47036;-87
2022/07/25 07:00:11;;;;;;;;;3.00;3.00;;;;;23.28;51.12;101056.66;2366330;29;45217;-87
2022/07/25 07:01:22;;;;;;;;;4.50;2.25;;;;;23.30;51.61;101056.50;2356882;29;46984;-86
2022/07/25 07:02:32;;;;;;;;;2.00;2.00;;;;;23.34;51.73;101056.13;2357319;29;45207;-87
2022/07/25 07:03:42;;;;;;;;;4.75;3.00;;;;;23.37;51.48;101069.28;2357691;29;45342;-87
2022/07/25 07:04:53;;;;;;;;;5.00;3.00;;;;;23.39;51.72;101069.16;2356717;29;45380;-87
2022/07/25 07:06:04;;;;;;;;;1.50;1.50;;;;;23.42;51.51;101063.53;2354394;29;47435;-87
2022/07/25 07:07:15;;;;;;;;;2.00;2.00;;;;;23.47;51.79;101071.19;2354569;29;44633;-86
2022/07/25 07:08:25;;;;;;;;;3.25;2.75;;;;;23.53;51.36;101077.91;2347931;29;47236;-87
2022/07/25 07:09:36;;;;;;;;;2.00;2.00;;;;;23.55;51.44;101086.69;2353474;29;45224;-87
2022/07/25 07:10:46;;;;;;;;;3.00;2.00;;;;;23.58;51.65;101084.59;2352433;29;45376;-87
2022/07/25 07:11:57;;;;;;;;;2.00;1.00;;;;;23.61;51.16;101086.16;2356056;29;45204;-86
2022/07/25 07:13:11;;;;;;;;;2.25;1.00;;;;;23.64;51.40;101082.38;2347724;29;48150;-86
2022/07/25 07:14:21;;;;;;;;;2.00;2.00;;;;;23.68;51.62;101089.19;2351695;29;44706;-86
2022/07/25 07:15:31;;;;;;;;;3.25;2.00;;;;;23.71;51.49;101084.41;2363560;29;46724;-86
2022/07/25 07:16:42;;;;;;;;;2.25;1.25;;;;;23.76;51.56;101086.69;2357638;29;45271;-86
2022/07/25 07:17:53;;;;;;;;;4.00;3.00;;;;;23.77;51.19;101091.09;2357539;29;46221;-86
2022/07/25 07:19:03;;;;;;;;;2.25;2.25;;;;;23.81;51.48;101089.00;2356872;29;45283;-86
2022/07/25 07:20:13;;;;;;;;;2.25;2.25;;;;;23.87;51.44;101084.94;2350040;29;46205;-86
2022/07/25 07:21:24;;;;;;;;;3.25;3.00;;;;;23.91;52.04;101094.44;2356972;29;45423;-88
2022/07/25 07:22:45;;;;;;;;;6.00;3.00;;;;;23.89;51.41;101091.88;2356669;29;48015;-88
2022/07/25 07:23:55;;;;;;;;;2.75;1.00;;;;;23.88;50.63;101092.88;2351749;29;44639;-89
2022/07/25 07:25:06;;;;;;;;;4.25;3.00;;;;;23.89;51.49;101099.09;2350021;29;46993;-89
2022/07/25 07:26:17;;;;;;;;;2.50;2.50;;;;;23.87;51.19;101093.00;2356365;29;45596;-87
2022/07/25 07:27:27;;;;;;;;;3.50;2.00;;;;;23.86;51.31;101097.50;2352228;29;48425;-86
2022/07/25 07:28:38;;;;;;;;;3.50;2.50;;;;;23.92;51.00;101082.72;2355781;29;45403;-87
2022/07/25 07:29:49;;;;;;;;;3.25;3.00;;;;;23.98;50.96;101084.06;2357074;29;46089;-87
2022/07/25 07:30:59;;;;;;;;;4.00;3.50;;;;;24.00;50.81;101090.97;2350007;29;45312;-87
2022/07/25 07:32:10;;;;;;;;;4.25;4.00;;;;;24.04;50.84;101084.38;2348899;29;45589;-87
2022/07/25 07:33:20;;;;;;;;;2.00;2.00;;;;;24.08;51.08;101090.31;2357320;29;45508;-87
2022/07/25 07:34:31;;;;;;;;;4.00;2.75;;;;;24.11;51.37;101089.19;2356643;29;47306;-88
2022/07/25 07:35:44;;;;;;;;;2.00;2.00;;;;;24.14;50.79;101094.31;2357171;29;45294;-87
2022/07/25 07:36:54;;;;;;;;;2.00;2.00;;;;;24.17;50.42;101094.06;2357486;29;46247;-87
2022/07/25 07:38:05;;;;;;;;;3.00;3.00;;;;;24.21;50.49;101095.47;2356905;29;45404;-87
2022/07/25 07:39:15;;;;;;;;;0.75;0.75;;;;;24.22;50.05;101096.34;2350110;29;47187;-88
2022/07/25 07:40:26;;;;;;;;;2.00;2.00;;;;;24.19;50.01;101097.47;2359114;29;45353;-87
2022/07/25 07:41:36;;;;;;;;;2.75;2.75;;;;;24.15;50.47;101091.47;2363233;29;46708;-86
2022/07/25 07:42:49;;;;;;;;;6.00;3.00;;;;;24.12;50.23;101094.47;2356447;29;45297;-87
2022/07/25 07:43:59;;;;;;;;;2.00;2.00;;;;;24.12;50.51;101096.28;2358781;29;48086;-87
2022/07/25 07:45:15;;;;;;;;;4.50;2.75;;;;;24.15;50.55;101098.72;2356633;29;45231;-87
2022/07/25 07:46:25;;;;;;;;;4.00;2.75;;;;;24.19;50.36;101105.50;2356364;29;45347;-87
2022/07/25 07:47:36;;;;;;;;;4.00;2.50;;;;;24.20;50.45;101098.31;2356757;29;45275;-87
2022/07/25 07:48:46;;;;;;;;;3.00;3.00;;;;;24.23;50.30;101106.94;2356518;29;46522;-86
2022/07/25 07:49:56;;;;;;;;;4.00;2.75;;;;;24.25;50.61;101105.00;2356663;29;45232;-87
2022/07/25 07:51:07;;;;;;;;;3.00;3.00;;;;;24.26;50.20;101108.53;2357069;29;45355;-87
2022/07/25 07:52:17;;;;;;;;;5.00;3.50;;;;;24.23;50.39;101098.88;2356312;29;45423;-87
2022/07/25 07:56:26;;;;;;;;;3.00;3.00;;;;;24.17;50.06;101113.69;2357220;29;45303;-87
2022/07/25 07:57:36;;;;;;;;;2.25;2.25;;;;;24.19;50.84;101112.72;2356712;29;45454;-87
2022/07/25 07:58:47;;;;;;;;;4.25;3.50;;;;;24.18;50.45;101111.84;2365648;29;47032;-87
2022/07/25 07:59:57;;;;;;;;;4.75;3.00;;;;;24.19;49.97;101104.66;2363198;29;45466;-87
2022/07/25 08:01:08;;;;;;;;;3.00;2.75;;;;;24.23;51.22;101116.81;2356908;29;46285;-86
2022/07/25 08:02:18;;;;;;;;;2.00;2.00;;;;;24.24;50.45;101124.78;2357273;29;45235;-88
2022/07/25 08:03:28;;;;;;;;;4.00;4.00;;;;;24.25;50.86;101113.06;2365543;29;47355;-86
2022/07/25 08:04:39;;;;;;;;;3.00;3.00;;;;;24.30;50.75;101119.88;2362873;29;45308;-87
2022/07/25 08:05:50;;;;;;;;;4.00;2.25;;;;;24.31;50.47;101108.16;2356012;29;46887;-87
2022/07/25 08:07:00;;;;;;;;;3.25;2.50;;;;;24.33;50.27;101122.28;2357007;29;45392;-87
2022/07/25 08:08:13;;;;;;;;;4.00;2.00;;;;;24.33;50.50;101123.16;2357092;29;45400;-89
2022/07/25 08:09:24;;;;;;;;;2.00;2.00;;;;;24.32;50.42;101118.78;2356570;29;45254;-87
2022/07/25 08:10:40;;;;;;;;;4.00;3.25;;;;;24.31;49.90;101121.56;2356060;29;45372;-87
2022/07/25 08:11:51;;;;;;;;;1.00;1.00;;;;;24.31;50.45;101119.75;2355955;29;45533;-87
2022/07/25 08:13:14;;;;;;;;;2.25;2.25;;;;;24.34;50.45;101119.50;2357203;29;45354;-87
2022/07/25 08:14:24;;;;;;;;;2.00;2.00;;;;;24.38;50.16;101117.38;2356647;29;45200;-87
2022/07/25 08:15:35;;;;;;;;;2.00;2.00;;;;;24.42;50.49;101117.97;2349852;29;45436;-86
2022/07/25 08:16:45;;;;;;;;;2.00;2.00;;;;;24.45;50.52;101117.69;2350705;29;45189;-87
2022/07/25 08:17:55;;;;;;;;;2.50;2.50;;;;;24.50;50.18;101127.06;2356682;29;46180;-87
2022/07/25 08:19:06;;;;;;;;;3.00;3.00;;;;;24.54;50.19;101124.97;2357261;29;44607;-87
2022/07/25 08:20:18;;;;;;;;;3.00;2.75;;;;;24.60;50.31;101137.00;2356241;29;47010;-87
2022/07/25 08:21:28;;;;;;;;;1.00;1.00;;;;;24.64;50.16;101127.69;2355620;29;45365;-87
2022/07/25 08:22:44;;;;;;;;;1.00;1.00;;;;;24.67;49.97;101131.94;2356845;29;45236;-87
2022/07/25 08:23:54;;;;;;;;;3.00;2.00;;;;;24.68;50.25;101131.81;2350759;29;45202;-87
2022/07/25 08:25:06;;;;;;;;;3.25;1.75;;;;;24.71;50.60;101134.22;2347723;29;46335;-87
2022/07/25 08:26:17;;;;;;;;;1.25;1.25;;;;;24.76;50.16;101132.97;2353222;29;44715;-88
2022/07/25 08:27:27;;;;;;;;;2.00;2.00;;;;;24.80;50.28;101129.88;2356559;29;45427;-87
2022/07/25 08:28:37;;;;;;;;;1.00;1.00;;;;;24.82;49.74;101130.59;2356668;29;44808;-88
2022/07/25 08:29:47;;;;;;;;;2.00;1.50;;;;;24.85;50.09;101134.84;2357120;29;45423;-86
2022/07/25 08:30:58;;;;;;;;;1.00;1.00;;;;;24.91;49.72;101142.38;2355780;29;45216;-87
2022/07/25 08:32:08;;;;;;;;;2.00;1.75;;;;;24.93;49.66;101128.78;2355340;29;48142;-87
2022/07/25 08:33:19;;;;;;;;;2.00;2.00;;;;;24.94;49.96;101128.63;2349821;29;45292;-87
2022/07/25 08:34:29;;;;;;;;;1.75;1.75;;;;;25.00;49.73;101134.50;2349732;29;47136;-88
2022/07/25 08:35:45;;;;;;;;;1.75;1.75;;;;;25.04;49.82;101138.59;2359086;29;45172;-87
2022/07/25 08:36:56;;;;;;;;;1.00;1.00;;;;;25.06;49.69;101134.78;2362488;29;45281;-87
2022/07/25 08:38:06;;;;;;;;;0.75;0.75;;;;;25.03;49.63;101132.41;2356040;29;45203;-87
2022/07/25 08:39:16;;;;;;;;;1.00;1.00;;;;;25.04;49.48;101138.59;2349623;29;47185;-87
2022/07/25 08:40:30;;;;;;;;;2.00;2.00;;;;;25.07;49.51;101143.72;2355395;29;45406;-87
2022/07/25 08:41:40;;;;;;;;;2.00;2.00;;;;;25.10;49.47;101138.06;2355587;29;47081;-86
2022/07/25 08:42:51;;;;;;;;;1.00;1.00;;;;;25.12;49.28;101141.47;2354326;29;44703;-87
2022/07/25 08:44:02;;;;;;;;;3.00;2.00;;;;;25.14;49.36;101144.00;2353214;29;45692;-87
2022/07/25 08:45:15;;;;;;;;;1.25;1.25;;;;;25.15;49.55;101145.72;2347293;29;44721;-87
2022/07/25 08:46:28;;;;;;;;;2.00;2.00;;;;;25.17;48.68;101144.59;2349644;29;47643;-87
2022/07/25 08:47:40;;;;;;;;;2.75;1.50;;;;;25.17;49.30;101149.13;2353598;29;45281;-86
2022/07/25 08:48:50;;;;;;;;;2.00;2.00;;;;;25.16;48.48;101148.25;2351125;29;45389;-89
2022/07/25 08:50:07;;;;;;;;;1.00;1.00;;;;;25.14;49.16;101139.47;2365531;29;44780;-87
2022/07/25 08:51:17;;;;;;;;;2.25;1.75;;;;;25.11;48.80;101141.63;2358861;29;45633;-87
2022/07/25 08:52:28;;;;;;;;;1.00;1.00;;;;;25.09;48.91;101146.28;2356332;29;45184;-87
2022/07/25 08:53:39;;;;;;;;;1.00;1.00;;;;;25.05;48.82;101143.88;2351108;29;46925;-86
2022/07/25 08:54:50;;;;;;;;;4.25;1.00;;;;;25.06;49.56;101150.09;2347207;29;45336;-87
2022/07/25 08:56:03;;;;;;;;;2.25;1.00;;;;;25.08;49.65;101139.19;2340295;29;47444;-87
2022/07/25 08:57:14;;;;;;;;;0.75;0.75;;;;;25.13;48.97;101148.56;2341195;29;44739;-87
2022/07/25 08:58:24;;;;;;;;;1.75;1.00;;;;;25.17;49.35;101147.28;2349553;29;48182;-86
2022/07/25 08:59:35;;;;;;;;;2.00;1.00;;;;;25.20;49.23;101148.00;2347142;29;44786;-88
2022/07/25 09:00:45;;;;;;;;;1.50;1.00;;;;;25.24;49.27;101152.97;2349127;29;45499;-87
2022/07/25 09:01:57;;;;;;;;;2.00;1.50;;;;;25.27;49.34;101152.69;2356168;29;44870;-87
2022/07/25 09:03:09;;;;;;;;;1.00;1.00;;;;;25.33;49.11;101147.75;2356050;29;48252;-87
2022/07/25 09:04:19;;;;;;;;;1.00;1.00;;;;;25.35;48.98;101149.31;2358846;29;45284;-87
2022/07/25 09:05:31;;;;;;;;;1.00;1.00;;;;;25.36;48.83;101152.84;2362656;29;45633;-87
2022/07/25 09:07:00;;;;;;;;;1.00;1.00;;;;;25.36;48.97;101156.38;2478931;27;45333;-85
2022/07/25 09:08:13;;;;;;;;;1.25;1.25;;;;;25.37;49.23;101150.03;2463999;27;45412;-84
2022/07/25 09:09:35;;;;;;;;;3.00;2.00;;;;;25.43;48.89;101153.16;2458421;27;47205;-86
2022/07/25 09:10:51;;;;;;;;;1.00;1.00;;;;;25.46;48.85;101151.00;2462998;27;45439;-85
2022/07/25 09:12:02;;;;;;;;;1.00;1.00;;;;;25.52;48.95;101157.69;2458074;27;47003;-85
2022/07/25 09:13:13;;;;;;;;;3.00;3.00;;;;;25.56;48.91;101153.72;2450571;27;45328;-85
2022/07/25 09:14:24;;;;;;;;;4.75;3.00;;;;;25.59;49.14;101158.81;2451144;27;47925;-85
2022/07/25 09:15:36;;;;;;;;;1.75;1.00;;;;;25.64;48.45;101150.31;2461549;27;45526;-85
2022/07/25 09:16:47;;;;;;;;;1.25;1.25;;;;;25.70;48.82;101148.94;2458247;27;47000;-85
2022/07/25 09:17:59;;;;;;;;;1.75;1.75;;;;;25.75;49.15;101164.69;2461589;27;44718;-86
2022/07/25 09:19:11;;;;;;;;;2.00;2.00;;;;;25.78;48.37;101167.91;2469187;27;45299;-83
2022/07/25 09:20:22;;;;;;;;;1.00;1.00;;;;;25.82;48.20;101163.97;2469186;27;45249;-84
2022/07/25 09:21:32;;;;;;;;;1.50;1.50;;;;;25.88;48.70;101167.94;2457656;27;47209;-84
2022/07/25 09:22:44;;;;;;;;;3.25;2.00;;;;;25.90;47.98;101173.19;2461659;27;45187;-83
2022/07/25 09:23:54;;;;;;;;;1.50;1.50;;;;;25.90;48.72;101165.13;2469304;27;46431;-83
2022/07/25 09:25:05;;;;;;;;;1.25;1.25;;;;;25.91;48.56;101164.97;2451106;27;44732;-83
2022/07/25 09:26:15;;;;;;;;;2.25;1.00;;;;;25.95;48.18;101163.66;2456339;27;45417;-83
2022/07/25 09:27:33;;;;;;;;;2.00;1.50;;;;;26.01;48.61;101174.88;2469311;27;45217;-84
2022/07/25 09:28:46;;;;;;;;;3.00;1.50;;;;;26.01;48.13;101166.78;2458181;27;46312;-83
2022/07/25 09:29:56;;;;;;;;;2.75;2.00;;;;;26.04;48.16;101169.19;2443451;28;45466;-83
2022/07/25 09:31:08;;;;;;;;;1.00;1.00;;;;;26.08;48.05;101165.22;2446784;27;46387;-83
2022/07/25 09:32:21;;;;;;;;;3.00;1.00;;;;;26.13;47.46;101167.47;2461646;27;45334;-84
2022/07/25 09:33:31;;;;;;;;;2.00;2.00;;;;;26.13;47.36;101157.56;2468207;27;46242;-84
2022/07/25 09:34:44;;;;;;;;;2.50;2.00;;;;;26.17;47.49;101166.22;2470851;27;45328;-87
2022/07/25 09:35:55;;;;;;;;;3.50;2.00;;;;;26.18;47.91;101162.50;2470156;27;45454;-85
2022/07/25 09:37:13;;;;;;;;;2.00;1.50;;;;;26.20;47.71;101160.53;2468464;27;45490;-84
2022/07/25 09:38:24;;;;;;;;;2.75;0.50;;;;;26.23;48.06;101173.72;2458345;27;48139;-84
2022/07/25 09:39:46;;;;;;;;;1.25;0.75;;;;;26.24;47.30;101170.03;2451196;27;45437;-85
2022/07/25 09:41:00;;;;;;;;;2.00;2.00;;;;;26.25;47.97;101169.03;2462565;27;47378;-85
2022/07/25 09:42:24;;;;;;;;;1.25;1.00;;;;;26.26;47.97;101165.34;2458221;27;45440;-85
2022/07/25 09:43:40;;;;;;;;;1.50;1.50;;;;;26.32;47.85;101182.78;2458150;27;47226;-84
2022/07/25 09:45:10;;;;;;;;;3.25;2.25;;;;;26.37;48.24;101180.47;2461556;27;45455;-85
2022/07/25 09:46:29;;;;;;;;;2.00;2.00;;;;;26.40;47.60;101179.34;2475269;27;45387;-85
2022/07/25 09:47:59;;;;;;;;;2.00;2.00;;;;;26.43;47.02;101183.63;2448604;28;45405;-84
2022/07/25 09:49:13;;;;;;;;;2.50;2.25;;;;;26.45;47.87;101185.19;2452430;27;46989;-85
2022/07/25 09:50:25;;;;;;;;;2.50;2.50;;;;;26.45;47.56;101179.78;2458685;27;45461;-85
2022/07/25 09:51:36;;;;;;;;;1.25;1.25;;;;;26.46;47.63;101186.91;2450453;27;47871;-85
2022/07/25 09:52:46;;;;;;;;;1.75;1.75;;;;;26.45;46.94;101184.34;2460109;27;45864;-84
2022/07/25 09:53:57;;;;;;;;;1.25;1.25;;;;;26.42;46.62;101190.84;2458176;27;45979;-85
2022/07/25 09:55:09;;;;;;;;;2.00;2.00;;;;;26.43;46.87;101189.88;2460422;27;45231;-85
2022/07/25 09:56:20;;;;;;;;;1.00;1.00;;;;;26.43;46.90;101187.19;2453827;27;47262;-85
2022/07/25 09:57:30;;;;;;;;;1.75;1.75;;;;;26.43;47.09;101192.56;2452307;27;45371;-85
2022/07/25 09:58:40;;;;;;;;;2.00;1.25;;;;;26.42;47.03;101188.16;2458069;27;45354;-85
2022/07/25 09:59:52;;;;;;;;;4.00;2.25;;;;;26.42;47.13;101196.25;2463946;27;45404;-85
2022/07/25 10:01:05;;;;;;;;;1.75;1.75;;;;;26.41;46.67;101183.75;2463989;27;46117;-85
2022/07/25 10:02:32;;;;;;;;;1.25;1.25;;;;;26.40;46.58;101185.59;2468938;27;45220;-84
2022/07/25 10:04:08;;;;;;;;;2.75;1.25;;;;;26.38;46.87;101190.28;2465432;27;47027;-85
2022/07/25 10:05:40;;;;;;;;;2.50;1.00;;;;;26.34;46.32;101190.72;2454885;27;45277;-85
2022/07/25 10:07:06;;;;;;;;;2.00;2.00;;;;;26.35;46.66;101181.66;2447355;27;46733;-85
2022/07/25 10:08:18;;;;;;;;;3.50;1.50;;;;;26.38;46.54;101184.88;2449052;27;45494;-88
2022/07/25 10:09:29;;;;;;;;;1.25;1.25;;;;;26.39;46.35;101191.13;2444921;27;48272;-84
2022/07/25 10:10:41;;;;;;;;;2.00;2.00;;;;;26.41;46.63;101183.75;2458411;27;45457;-85
2022/07/25 10:12:06;;;;;;;;;1.50;1.50;;;;;26.43;46.49;101187.19;2478297;27;46242;-85
2022/07/25 10:13:29;;;;;;;;;2.25;1.00;;;;;26.43;45.93;101197.97;2456838;27;45468;-84
2022/07/25 10:14:40;;;;;;;;;1.00;1.00;;;;;26.46;46.50;101186.03;2449726;27;48295;-84
2022/07/25 10:15:52;;;;;;;;;2.00;2.00;;;;;26.46;46.14;101186.91;2456582;27;45324;-85
2022/07/25 10:17:03;;;;;;;;;3.00;2.50;;;;;26.50;46.43;101185.59;2467111;27;46443;-85
2022/07/25 10:18:15;;;;;;;;;2.00;2.00;;;;;26.52;46.86;101191.69;2448079;28;45161;-85
2022/07/25 10:19:46;;;;;;;;;1.25;1.25;;;;;26.52;46.63;101191.69;2442868;28;47061;-85
2022/07/25 10:21:11;;;;;;;;;2.00;2.00;;;;;26.52;46.04;101194.38;2460187;27;45395;-85
2022/07/25 10:22:21;;;;;;;;;2.00;2.00;;;;;26.49;46.60;101186.63;2457378;27;45382;-84
2022/07/25 10:23:32;;;;;;;;;1.00;1.00;;;;;26.51;46.52;101191.84;2443818;27;44623;-84
2022/07/25 10:24:45;;;;;;;;;2.00;2.00;;;;;26.51;46.10;101194.53;2440493;28;46906;-85
2022/07/25 10:26:03;;;;;;;;;3.00;1.00;;;;;26.56;46.50;101186.03;2445658;28;45365;-85
2022/07/25 10:27:21;;;;;;;;;2.00;2.00;;;;;26.57;46.12;101193.13;2454037;27;45349;-85
2022/07/25 10:28:38;;;;;;;;;2.00;2.00;;;;;26.60;46.56;101193.66;2460569;27;44774;-85
2022/07/25 10:29:52;;;;;;;;;2.50;1.25;;;;;26.60;46.19;101198.19;2454280;27;46266;-85
2022/07/25 10:31:23;;;;;;;;;2.00;2.00;;;;;26.62;46.33;101193.50;2458767;27;44729;-85
2022/07/25 10:32:34;;;;;;;;;2.25;1.75;;;;;26.63;45.96;101198.78;2454519;27;47318;-85
2022/07/25 10:33:49;;;;;;;;;2.00;2.00;;;;;26.62;46.97;101202.44;2444318;28;45676;-85
2022/07/25 10:34:59;;;;;;;;;3.00;3.00;;;;;26.60;45.92;101209.84;2459943;27;45400;-85
2022/07/25 10:36:10;;;;;;;;;2.00;2.00;;;;;26.58;46.55;101206.44;2470528;27;45201;-85
2022/07/25 10:37:28;;;;;;;;;2.75;2.25;;;;;26.55;46.19;101203.16;2471817;27;46345;-85
2022/07/25 10:38:41;;;;;;;;;4.50;2.00;;;;;26.55;46.03;101205.88;2450388;27;44697;-85
2022/07/25 10:39:52;;;;;;;;;2.00;1.75;;;;;26.59;46.34;101204.59;2443952;28;47254;-85
2022/07/25 10:41:03;;;;;;;;;2.00;1.75;;;;;26.61;46.49;101208.00;2452722;27;45251;-85
2022/07/25 10:42:16;;;;;;;;;3.50;1.75;;;;;26.64;45.92;101205.00;2448417;28;47944;-85
2022/07/25 10:43:26;;;;;;;;;1.25;1.25;;;;;26.67;46.16;101204.69;2444273;28;45414;-85
2022/07/25 10:44:43;;;;;;;;;2.75;1.25;;;;;26.72;45.91;101201.56;2451279;28;45429;-85
2022/07/25 10:45:57;;;;;;;;;1.50;1.50;;;;;26.73;47.00;101198.75;2441467;28;45301;-85
2022/07/25 10:47:12;;;;;;;;;2.00;2.00;;;;;26.77;46.52;101198.44;2453660;27;47051;-85
2022/07/25 10:48:28;;;;;;;;;2.00;2.00;;;;;26.80;46.35;101204.38;2450625;27;44717;-85
2022/07/25 10:49:45;;;;;;;;;1.50;1.50;;;;;26.80;46.08;101198.13;2457460;27;45346;-85
2022/07/25 10:51:05;;;;;;;;;2.00;2.00;;;;;26.83;46.27;101198.72;2455488;27;45282;-85
2022/07/25 10:52:18;;;;;;;;;2.00;2.00;;;;;26.86;46.11;101202.97;2453474;27;45432;-85
2022/07/25 10:53:43;;;;;;;;;2.25;2.25;;;;;26.88;46.37;101211.75;2450618;28;45560;-85
2022/07/25 10:54:56;;;;;;;;;1.75;1.00;;;;;26.87;45.33;101212.72;2446046;27;48062;-84
2022/07/25 10:56:11;;;;;;;;;2.00;2.00;;;;;26.83;45.43;101209.50;2465479;27;44850;-85
2022/07/25 10:57:22;;;;;;;;;2.00;2.00;;;;;26.79;45.99;101208.09;2461408;27;45590;-85
2022/07/25 10:58:52;;;;;;;;;2.25;2.25;;;;;26.82;45.90;101215.00;2457032;27;45221;-85
2022/07/25 11:00:07;;;;;;;;;2.00;2.00;;;;;26.79;46.14;101212.63;2448539;28;48199;-85
2022/07/25 11:01:33;;;;;;;;;1.25;1.25;;;;;26.79;45.80;101212.63;2454640;27;45336;-85
2022/07/25 11:02:43;;;;;;;;;1.25;1.25;;;;;26.77;45.79;101214.63;2454638;27;45322;-85
2022/07/25 11:04:13;;;;;;;;;2.50;1.75;;;;;26.72;45.20;101221.28;2453949;27;45223;-86
2022/07/25 11:05:23;;;;;;;;;3.00;2.00;;;;;26.66;45.66;101218.34;2447320;28;48180;-87
2022/07/25 11:06:41;;;;;;;;;2.00;1.00;;;;;26.64;46.54;101215.78;2441397;27;46283;-85
2022/07/25 11:07:53;;;;;;;;;2.00;2.00;;;;;26.62;46.41;101226.72;2434525;28;48524;-84
2022/07/25 11:09:23;;;;;;;;;1.25;1.25;;;;;26.61;46.34;101213.38;2452370;27;45230;-85
2022/07/25 11:10:35;;;;;;;;;2.00;2.00;;;;;26.59;45.94;101218.06;2455699;27;46394;-85
2022/07/25 11:11:48;;;;;;;;;1.50;1.50;;;;;26.59;46.39;101221.63;2453138;27;45274;-85
2022/07/25 11:12:59;;;;;;;;;1.50;1.25;;;;;26.60;45.76;101226.00;2450041;28;46108;-85
2022/07/25 11:14:41;;;;;;;;;3.00;2.50;;;;;26.61;46.03;101224.16;2450456;27;45331;-84
2022/07/25 11:15:56;;;;;;;;;1.00;1.00;;;;;26.62;45.92;101226.72;2448459;28;46992;-85
2022/07/25 11:17:14;;;;;;;;;5.00;3.00;;;;;26.63;46.40;101227.56;2451324;28;44881;-84
2022/07/25 11:18:38;;;;;;;;;2.75;2.00;;;;;26.61;45.58;101226.88;2456801;27;45538;-84
2022/07/25 11:19:54;;;;;;;;;3.25;3.25;;;;;26.63;45.66;101232.97;2448843;28;44703;-85
2022/07/25 11:21:07;;;;;;;;;5.00;2.00;;;;;26.62;45.79;101225.84;2441649;28;45989;-85
2022/07/25 11:22:17;;;;;;;;;3.00;3.00;;;;;26.61;46.26;101229.56;2453738;27;45427;-84
2022/07/25 11:23:28;;;;;;;;;3.00;2.00;;;;;26.62;46.05;101232.09;2443798;27;46701;-85
2022/07/25 11:24:40;;;;;;;;;2.50;2.50;;;;;26.64;45.95;101231.97;2441805;28;45488;-84
2022/07/25 11:25:50;;;;;;;;;3.25;3.00;;;;;26.65;46.21;101224.72;2446539;27;45371;-85
2022/07/25 11:27:01;;;;;;;;;2.25;1.25;;;;;26.65;46.29;101222.88;2457199;27;45183;-84
2022/07/25 11:28:11;;;;;;;;;3.75;2.50;;;;;26.66;46.61;101229.97;2460353;27;45287;-85
2022/07/25 11:29:25;;;;;;;;;3.50;2.00;;;;;26.68;46.31;101236.06;2457115;27;45377;-85
2022/07/25 11:30:36;;;;;;;;;2.00;2.00;;;;;26.72;46.27;101226.69;2456611;27;45531;-85
2022/07/25 11:31:55;;;;;;;;;2.00;2.00;;;;;26.74;46.66;101215.78;2461319;27;45289;-85
2022/07/25 11:33:05;;;;;;;;;2.00;2.00;;;;;26.79;46.23;101210.78;2454667;27;46272;-85
2022/07/25 11:34:15;;;;;;;;;1.50;1.50;;;;;26.82;46.25;101210.47;2456659;27;44736;-85
2022/07/25 11:35:29;;;;;;;;;4.00;4.00;;;;;26.86;45.85;101213.75;2464092;27;45730;-85
2022/07/25 11:36:40;;;;;;;;;3.00;3.00;;;;;26.91;46.59;101214.16;2456926;27;45337;-85
2022/07/25 11:37:51;;;;;;;;;2.50;2.00;;;;;26.94;46.81;101219.22;2453666;27;46278;-85
2022/07/25 11:39:02;;;;;;;;;3.00;3.00;;;;;26.97;45.97;101216.25;2461001;27;44613;-84
2022/07/25 11:40:15;;;;;;;;;2.50;2.50;;;;;27.00;46.43;101217.78;2451728;27;48208;-86
2022/07/25 11:41:29;;;;;;;;;3.75;2.50;;;;;27.05;46.55;101215.50;2456421;27;45408;-86
2022/07/25 11:42:42;;;;;;;;;3.00;3.00;;;;;27.08;46.59;101222.44;2450840;28;47033;-85
2022/07/25 11:43:52;;;;;;;;;1.75;1.75;;;;;27.12;45.97;101223.03;2450941;27;45515;-84
2022/07/25 11:45:03;;;;;;;;;2.00;2.00;;;;;27.16;46.31;101232.53;2456188;27;47649;-85
2022/07/25 11:46:13;;;;;;;;;2.00;2.00;;;;;27.19;45.84;101230.38;2451518;27;45381;-85
2022/07/25 11:47:31;;;;;;;;;3.00;3.00;;;;;27.23;45.75;101225.53;2460534;27;46692;-85
2022/07/25 11:48:41;;;;;;;;;2.50;2.50;;;;;27.25;45.83;101217.28;2453243;27;45455;-85
2022/07/25 11:49:53;;;;;;;;;3.00;2.00;;;;;27.26;45.33;101219.81;2453007;27;47218;-85
2022/07/25 11:51:35;;;;;;;;;3.50;2.00;;;;;27.27;45.60;101228.78;2460906;27;45300;-85
2022/07/25 11:52:45;;;;;;;;;5.00;2.00;;;;;27.30;45.33;101233.88;2450788;27;47620;-85
2022/07/25 11:53:55;;;;;;;;;2.25;2.00;;;;;27.29;44.75;101218.69;2450464;28;46436;-84
2022/07/25 11:55:15;;;;;;;;;3.00;2.50;;;;;27.28;44.54;101217.00;2443173;28;47086;-85
2022/07/25 11:56:26;;;;;;;;;3.00;2.75;;;;;27.26;43.82;101222.53;2451742;27;45246;-84
2022/07/25 11:57:39;;;;;;;;;4.00;3.00;;;;;27.27;44.39;101218.84;2442531;28;47868;-85
2022/07/25 11:58:58;;;;;;;;;2.50;2.00;;;;;27.24;44.81;101215.56;2444529;28;45248;-85
2022/07/25 12:00:18;;;;;;;;;1.50;1.50;;;;;27.25;44.64;101222.69;2450445;28;48320;-85
2022/07/25 12:01:40;;;;;;;;;2.00;2.00;;;;;27.23;44.71;101214.75;2445070;28;45328;-85
2022/07/25 12:02:50;;;;;;;;;1.00;1.00;;;;;27.25;44.61;101218.16;2460407;27;45413;-86
2022/07/25 12:04:30;;;;;;;;;1.25;1.25;;;;;27.26;44.59;101213.59;2459622;27;45491;-85
2022/07/25 12:05:40;;;;;;;;;2.50;2.25;;;;;27.22;43.38;101206.78;2443337;27;46339;-86
2022/07/25 12:06:51;;;;;;;;;2.25;2.25;;;;;27.19;44.43;101213.31;2460673;27;45495;-84
2022/07/25 12:08:11;;;;;;;;;2.00;2.00;;;;;27.21;44.58;101207.81;2459705;27;45340;-85
2022/07/25 12:09:22;;;;;;;;;3.00;3.00;;;;;27.22;45.01;101207.63;2451169;27;44836;-85
2022/07/25 12:10:35;;;;;;;;;4.25;3.00;;;;;27.24;44.64;101215.56;2453230;27;45261;-86
2022/07/25 12:11:47;;;;;;;;;5.75;3.00;;;;;27.25;44.56;101207.34;2450607;28;44724;-86
2022/07/25 12:13:00;;;;;;;;;3.00;3.00;;;;;27.26;44.55;101208.22;2442748;28;47200;-86
2022/07/25 12:14:12;;;;;;;;;4.50;3.00;;;;;27.29;44.19;101213.28;2453887;27;44753;-86
2022/07/25 12:15:28;;;;;;;;;3.00;3.00;;;;;27.30;44.02;101209.59;2456627;27;45274;-89
2022/07/25 12:16:38;;;;;;;;;2.50;2.00;;;;;27.29;44.74;101211.44;2450696;28;45283;-86
2022/07/25 12:17:54;;;;;;;;;1.75;1.75;;;;;27.26;43.88;101202.81;2442151;28;46604;-84
2022/07/25 12:19:16;;;;;;;;;2.75;2.75;;;;;27.25;44.53;101219.97;2444336;28;45260;-86
2022/07/25 12:20:32;;;;;;;;;1.75;1.75;;;;;27.26;44.48;101208.22;2455265;27;45510;-85
2022/07/25 12:21:42;;;;;;;;;7.00;3.00;;;;;27.25;44.39;101209.19;2461347;27;45216;-85
2022/07/25 12:22:55;;;;;;;;;3.00;1.75;;;;;27.27;43.10;101209.88;2460176;27;46251;-85
2022/07/25 12:24:05;;;;;;;;;3.00;3.00;;;;;27.28;44.14;101217.00;2460417;27;44748;-85
2022/07/25 12:25:16;;;;;;;;;6.00;2.50;;;;;27.29;43.85;101224.94;2457198;27;45694;-85